Terminal Aerodrome Forecast
Issued by NWS

Home | Current Version | Previous Version | Text Only | Print | Product List | Glossary Off
Versions: 1 2 3 4 5 6 7 8 9 10 11 12 13 14 15

000
FTUS45 KGGW 142100 AAA
TAFSDY
TAF AMD
KSDY 142152Z 1422/1518 33015KT 5SM -FZDZ SCT008 OVC012
     FM150330 34013KT 3SM -SN BR OVC007
     FM151000 34015KT P6SM BKN010
      AMD LTD TO CLD VIS AND WIND=

USA.gov is the U.S. government's official web portal to all federal, state and local government web resources and services.